Terminal Aerodrome Forecast
Issued by NWS

Home | Current Version | Previous Version | Text Only | Print | Product List | Glossary On
Versions: 1 2 3 4 5 6 7 8 9 10 11 12 13 14 15 16 17 18 19 20
000
FTUS46 KMFR 302359 AAA
TAFOTH
TAF AMD
KOTH 302359Z 0100/0124 26005KT P6SM -SHRA FEW015 BKN025 OVC035
     FM010200 30005KT P6SM -SHRA SCT025 OVC040
     FM010600 14005KT P6SM -SHRA SCT025 BKN035 OVC050
      TEMPO 0106/0110 -SHRA SCT025 BKN030 OVC050
     FM011300 VRB05KT P6SM BKN035 OVC050
      AMD NOT SKED 0104/0114=

USA.gov is the U.S. government's official web portal to all federal, state and local government web resources and services.